Terminal Aerodrome Forecast
Issued by NWS

Home | Current Version | Previous Version | Text Only | Print | Product List | Glossary On
Versions: 1 2 3 4 5 6 7 8 9 10 11 12 13 14
000
FTUS42 KMLB 130500
TAFISM
TAF
KISM 130530Z 1306/1406 VRB03KT P6SM SCT250
     FM131400 13005KT P6SM SCT030 SCT250
     FM132000 11008KT P6SM VCTS SCT045CB BKN250
     FM140200 12003KT P6SM SCT040 BKN120
      AMD NOT SKED 1306/1311=

USA.gov is the U.S. government's official web portal to all federal, state and local government web resources and services.